createdAt,value
2022-09-27T00:02:43.489Z,51.05
2022-09-27T00:05:23.582Z,49.85
2022-09-27T00:08:00.301Z,47.10
2022-09-27T00:10:39.365Z,49.25
2022-09-27T00:13:15.928Z,42.25
2022-09-27T00:16:02.312Z,44.75
2022-09-27T00:18:41.640Z,43.40
2022-09-27T00:21:22.300Z,44.35
2022-09-27T00:23:58.056Z,42.90
2022-09-27T00:26:37.919Z,45.25
2022-09-27T00:29:11.299Z,43.78
2022-09-27T00:31:53.518Z,44.25
2022-09-27T00:34:29.754Z,42.72
2022-09-27T00:37:16.706Z,44.30
2022-09-27T00:42:29.722Z,43.83
2022-09-27T00:45:26.763Z,44.08
2022-09-27T00:48:16.609Z,41.75
2022-09-27T00:51:06.277Z,43.03
2022-09-27T00:53:48.562Z,43.95
2022-09-27T00:56:38.500Z,47.67
2022-09-27T00:59:26.000Z,47.03
2022-09-27T01:01:56.218Z,45.13
2022-09-27T01:04:35.867Z,45.70
2022-09-27T01:07:10.978Z,45.50
2022-09-27T01:09:47.878Z,48.30
2022-09-27T01:12:45.027Z,46.92
2022-09-27T01:16:07.498Z,45.85
2022-09-27T01:19:13.889Z,46.95
2022-09-27T01:22:07.058Z,44.33
2022-09-27T01:25:07.073Z,42.78
2022-09-27T01:28:12.621Z,45.80
2022-09-27T01:31:04.360Z,46.83
2022-09-27T01:33:46.396Z,44.75
2022-09-27T01:37:25.351Z,47.75
2022-09-27T01:40:06.774Z,42.63
2022-09-27T02:06:04.460Z,45.63
2022-09-27T02:09:15.169Z,42.13
2022-09-27T02:12:22.297Z,43.10
2022-09-27T02:15:18.222Z,40.58
2022-09-27T02:18:16.558Z,39.13
2022-09-27T02:20:58.733Z,36.97
2022-09-27T02:23:58.103Z,36.45
2022-09-27T02:26:40.336Z,41.67
2022-09-27T02:29:17.123Z,40.75
2022-09-27T02:32:04.540Z,40.10
2022-09-27T02:34:40.052Z,36.10
2022-09-27T02:37:15.908Z,37.70
2022-09-27T02:39:50.505Z,37.08
2022-09-27T02:42:38.435Z,37.83
2022-09-27T02:45:18.730Z,36.60
2022-09-27T02:48:03.819Z,36.53
2022-09-27T02:50:58.925Z,35.33
2022-09-27T02:53:56.412Z,36.45
2022-09-27T02:57:18.602Z,35.28
2022-09-27T03:00:41.802Z,35.10
2022-09-27T03:03:57.454Z,34.92
2022-09-27T03:06:32.359Z,32.28
2022-09-27T03:09:16.143Z,31.58
2022-09-27T03:11:54.817Z,31.20
2022-09-27T03:14:39.367Z,30.77
2022-09-27T03:17:33.038Z,31.25
2022-09-27T03:20:30.300Z,30.38
2022-09-27T03:23:20.376Z,30.80
2022-09-27T03:26:13.182Z,31.42
2022-09-27T03:28:53.375Z,30.58
2022-09-27T03:31:44.495Z,28.85
2022-09-27T03:34:58.532Z,30.55
2022-09-27T03:37:38.462Z,29.52
2022-09-27T03:40:13.842Z,31.33
2022-09-27T03:42:49.793Z,29.02
2022-09-27T03:45:33.055Z,30.58
2022-09-27T03:48:11.344Z,29.70
2022-09-27T03:50:45.089Z,29.05
2022-09-27T03:56:01.896Z,31.60
2022-09-27T03:58:44.556Z,32.33
2022-09-27T04:01:26.308Z,31.02
2022-09-27T04:04:10.252Z,36.08
2022-09-27T04:06:52.397Z,38.20
2022-09-27T04:09:43.907Z,37.92
2022-09-27T04:12:17.789Z,34.00
2022-09-27T04:14:59.450Z,34.72
2022-09-27T04:17:56.520Z,38.55
2022-09-27T04:20:46.661Z,35.95
2022-09-27T04:23:27.631Z,40.90
2022-09-27T04:26:07.887Z,42.25
2022-09-27T04:29:06.847Z,45.65
2022-09-27T04:32:03.287Z,51.10
2022-09-27T04:35:14.678Z,51.72
2022-09-27T04:37:51.098Z,53.38
2022-09-27T04:40:33.239Z,57.08
2022-09-27T04:43:06.014Z,57.90
2022-09-27T04:45:55.343Z,61.40
2022-09-27T04:48:37.858Z,61.03
2022-09-27T04:51:15.860Z,72.57
2022-09-27T04:53:48.804Z,70.03
2022-09-27T04:56:21.267Z,65.03
2022-09-27T04:59:00.748Z,69.18
2022-09-27T05:01:36.786Z,66.55
2022-09-27T05:04:34.700Z,75.90
2022-09-27T05:07:10.616Z,79.93
2022-09-27T05:09:58.836Z,84.47
2022-09-27T05:12:37.324Z,74.85
2022-09-27T05:18:39.199Z,64.20
2022-09-27T05:21:58.533Z,66.75
2022-09-27T05:24:36.306Z,75.38
2022-09-27T05:27:23.540Z,70.10
2022-09-27T05:30:03.252Z,73.07
2022-09-27T05:32:56.182Z,77.80
2022-09-27T05:35:42.051Z,83.15
2022-09-27T05:38:24.398Z,91.13
2022-09-27T05:41:10.820Z,88.10
2022-09-27T05:43:47.450Z,88.03
2022-09-27T05:46:28.342Z,86.15
2022-09-27T05:49:12.181Z,85.50
2022-09-27T05:51:52.890Z,75.32
2022-09-27T05:54:30.116Z,79.97
2022-09-27T05:57:09.561Z,81.82
2022-09-27T06:02:53.057Z,86.45
2022-09-27T06:05:50.479Z,82.03
2022-09-27T06:08:55.891Z,76.20
2022-09-27T06:11:31.964Z,75.15
2022-09-27T06:14:19.289Z,73.72
2022-09-27T06:17:03.978Z,73.80
2022-09-27T06:19:41.014Z,73.78
2022-09-27T06:22:25.495Z,71.05
2022-09-27T06:25:13.263Z,67.95
2022-09-27T06:27:57.159Z,65.30
2022-09-27T06:30:47.174Z,62.53
2022-09-27T06:33:44.517Z,61.17
2022-09-27T06:36:18.134Z,59.22
2022-09-27T06:38:54.124Z,65.93
2022-09-27T06:41:39.312Z,68.40
2022-09-27T06:44:21.301Z,75.80
2022-09-27T06:47:15.505Z,75.35
2022-09-27T06:50:19.682Z,78.63
2022-09-27T06:52:54.417Z,76.50
2022-09-27T06:55:32.352Z,76.45
2022-09-27T06:58:23.664Z,77.07
2022-09-27T07:01:16.696Z,68.35
2022-09-27T07:04:05.081Z,66.57
2022-09-27T07:06:51.776Z,60.25
2022-09-27T07:09:43.880Z,62.22
2022-09-27T07:12:24.354Z,68.22
2022-09-27T07:15:00.237Z,78.07
2022-09-27T07:17:39.583Z,63.75
2022-09-27T07:20:14.993Z,52.72
2022-09-27T07:22:50.463Z,55.17
2022-09-27T07:25:28.852Z,48.35
2022-09-27T07:28:09.490Z,44.00
2022-09-27T07:30:48.309Z,42.17
2022-09-27T07:33:19.254Z,42.50
2022-09-27T07:35:52.039Z,45.30
2022-09-27T07:38:37.386Z,46.07
2022-09-27T07:41:19.924Z,42.78
2022-09-27T07:44:06.617Z,47.40
2022-09-27T07:46:46.943Z,44.70
2022-09-27T07:49:33.057Z,41.22
2022-09-27T07:52:40.148Z,40.00
2022-09-27T07:55:26.293Z,40.17
2022-09-27T07:58:15.248Z,39.78
2022-09-27T08:00:51.125Z,32.70
2022-09-27T08:03:29.662Z,34.75
2022-09-27T08:06:08.628Z,36.70
2022-09-27T08:08:39.685Z,34.83
2022-09-27T08:11:26.432Z,34.80
2022-09-27T08:14:02.695Z,39.20
2022-09-27T08:16:58.608Z,34.38
2022-09-27T08:19:45.244Z,30.08
2022-09-27T08:22:50.208Z,28.50
2022-09-27T08:25:36.979Z,29.38
2022-09-27T08:28:34.996Z,27.90
2022-09-27T08:31:28.425Z,28.27
2022-09-27T08:34:05.392Z,25.15
2022-09-27T08:36:37.677Z,25.48
2022-09-27T08:39:15.819Z,24.23
2022-09-27T08:42:20.468Z,24.08
2022-09-27T08:45:12.064Z,24.92
2022-09-27T08:47:49.212Z,26.38
2022-09-27T08:51:05.842Z,24.20
2022-09-27T08:53:55.464Z,25.80
2022-09-27T08:56:37.138Z,25.95
2022-09-27T08:59:26.754Z,26.05
2022-09-27T09:02:07.955Z,24.17
2022-09-27T09:04:59.346Z,23.85
2022-09-27T09:08:07.513Z,23.88
2022-09-27T09:11:40.592Z,24.50
2022-09-27T09:14:33.362Z,26.00
2022-09-27T09:17:40.579Z,23.23
2022-09-27T09:20:58.586Z,25.33
2022-09-27T09:23:54.585Z,23.98
2022-09-27T09:26:57.295Z,24.63
2022-09-27T09:32:44.833Z,26.50
2022-09-27T09:35:21.621Z,24.15
2022-09-27T09:38:20.049Z,21.65
2022-09-27T09:41:09.388Z,23.95
2022-09-27T09:43:52.211Z,21.98
2022-09-27T09:46:48.151Z,24.05
2022-09-27T09:49:23.088Z,24.80
2022-09-27T09:52:09.019Z,25.35
2022-09-27T09:55:04.087Z,26.65
2022-09-27T09:57:57.667Z,25.60
2022-09-27T10:00:41.452Z,27.45
2022-09-27T10:03:17.655Z,25.60
2022-09-27T10:05:52.575Z,27.85
2022-09-27T10:08:42.204Z,26.55
2022-09-27T10:11:48.756Z,28.20
2022-09-27T10:14:44.517Z,28.50
2022-09-27T10:17:22.374Z,27.58
2022-09-27T10:20:05.416Z,30.15
2022-09-27T10:22:57.446Z,27.88
2022-09-27T10:26:06.425Z,33.22
2022-09-27T10:28:57.027Z,35.58
2022-09-27T10:31:50.463Z,33.45
2022-09-27T10:34:52.669Z,33.65
2022-09-27T10:37:30.950Z,32.47
2022-09-27T10:40:35.499Z,32.72
2022-09-27T10:43:36.662Z,31.25
2022-09-27T10:46:37.557Z,35.55
2022-09-27T10:49:40.316Z,31.65
2022-09-27T10:52:43.787Z,33.42
2022-09-27T10:55:45.542Z,33.42
2022-09-27T10:58:38.920Z,30.52
2022-09-27T11:01:20.237Z,32.95
2022-09-27T11:04:35.952Z,34.50
2022-09-27T11:07:24.194Z,51.17
2022-09-27T11:10:31.154Z,32.97
2022-09-27T11:13:32.279Z,30.55
2022-09-27T11:17:12.578Z,32.35
2022-09-27T11:20:17.458Z,32.70
2022-09-27T11:22:57.323Z,35.35
2022-09-27T11:28:12.785Z,29.92
2022-09-27T11:31:09.225Z,30.63
2022-09-27T11:34:11.714Z,31.33
2022-09-27T11:37:01.482Z,31.15
2022-09-27T11:40:06.759Z,30.60
2022-09-27T11:42:46.877Z,32.00
2022-09-27T11:46:10.746Z,33.72
2022-09-27T11:49:29.095Z,36.03
2022-09-27T11:52:43.433Z,38.30
2022-09-27T11:55:55.935Z,38.25
2022-09-27T11:59:10.701Z,39.63
2022-09-27T12:02:17.709Z,35.67
2022-09-27T12:05:01.537Z,27.40
2022-09-27T12:10:51.094Z,25.90
2022-09-27T12:13:56.408Z,29.08
2022-09-27T12:16:31.056Z,24.77
2022-09-27T12:19:23.626Z,26.15
2022-09-27T12:22:07.522Z,24.20
2022-09-27T12:24:54.981Z,22.40
2022-09-27T12:28:15.697Z,26.08
2022-09-27T12:31:24.439Z,22.65
2022-09-27T12:34:23.584Z,24.15
2022-09-27T12:37:13.388Z,19.60
2022-09-27T12:39:54.545Z,20.45
2022-09-27T12:43:16.475Z,20.63
2022-09-27T12:46:37.328Z,19.30
2022-09-27T12:49:41.593Z,20.33
2022-09-27T12:52:53.053Z,20.38
2022-09-27T12:56:14.094Z,21.75
2022-09-27T12:59:26.664Z,20.00
2022-09-27T13:02:39.265Z,18.92
2022-09-27T13:09:01.847Z,18.08
2022-09-27T13:12:00.543Z,17.23
2022-09-27T13:14:55.901Z,17.30
2022-09-27T13:17:48.332Z,15.95
2022-09-27T13:21:03.595Z,16.92
2022-09-27T13:24:04.968Z,21.65
2022-09-27T13:27:34.997Z,24.27
2022-09-27T13:30:12.773Z,29.15
2022-09-27T13:33:14.162Z,33.50
2022-09-27T13:36:29.844Z,39.03
2022-09-27T13:42:48.155Z,35.72
2022-09-27T13:45:37.953Z,35.72
2022-09-27T13:48:45.057Z,32.70
2022-09-27T13:55:02.809Z,30.83
2022-09-27T13:58:14.872Z,33.97
2022-09-27T14:01:02.189Z,36.47
2022-09-27T14:04:07.755Z,37.47
2022-09-27T14:06:53.680Z,40.97
2022-09-27T14:09:54.683Z,37.17
2022-09-27T14:12:53.366Z,36.38
2022-09-27T14:15:54.474Z,40.10
2022-09-27T14:18:58.347Z,37.30
2022-09-27T14:22:00.144Z,42.42
2022-09-27T14:25:26.419Z,44.47
2022-09-27T14:28:32.296Z,38.50
2022-09-27T14:31:40.794Z,40.00
2022-09-27T14:34:27.985Z,44.10
2022-09-27T14:37:26.595Z,32.15
2022-09-27T14:40:24.585Z,17.35
2022-09-27T14:43:22.600Z,9.93
2022-09-27T14:46:05.749Z,6.75
2022-09-27T14:48:43.430Z,4.57
2022-09-27T14:51:14.555Z,4.72
2022-09-27T14:54:05.504Z,4.47
2022-09-27T14:56:49.044Z,6.82
2022-09-27T14:59:51.184Z,12.85
2022-09-27T15:02:27.602Z,19.42
2022-09-27T15:05:18.886Z,20.35
2022-09-27T15:08:07.130Z,18.13
2022-09-27T15:10:39.754Z,17.98
2022-09-27T15:13:29.982Z,17.23
2022-09-27T15:19:21.266Z,14.23
2022-09-27T15:22:25.379Z,12.93
2022-09-27T15:25:19.895Z,14.57
2022-09-27T15:28:13.574Z,14.27
2022-09-27T15:30:58.364Z,14.38
2022-09-27T15:33:58.197Z,16.67
2022-09-27T15:37:06.632Z,16.75
2022-09-27T15:39:49.619Z,8.45
2022-09-27T15:43:00.878Z,3.95
2022-09-27T15:46:01.245Z,2.30
2022-09-27T15:51:59.496Z,2.22
2022-09-27T15:54:57.044Z,2.40
2022-09-27T15:58:01.856Z,2.65
2022-09-27T16:00:34.373Z,3.13
2022-09-27T16:03:32.354Z,3.00
2022-09-27T16:06:07.174Z,3.35
2022-09-27T16:11:34.685Z,4.82
2022-09-27T16:14:23.299Z,5.45
2022-09-27T16:17:05.345Z,4.47
2022-09-27T16:19:45.473Z,3.78
2022-09-27T16:22:26.122Z,3.22
2022-09-27T16:24:56.369Z,4.30
2022-09-27T16:27:33.616Z,7.03
2022-09-27T16:30:08.184Z,6.82
2022-09-27T16:32:57.838Z,7.78
2022-09-27T16:35:37.244Z,11.18
2022-09-27T16:38:21.519Z,12.65
2022-09-27T16:41:03.999Z,13.57
2022-09-27T16:43:39.500Z,14.32
2022-09-27T16:46:21.895Z,12.63
2022-09-27T16:49:02.632Z,16.48
2022-09-27T16:51:56.325Z,17.40
2022-09-27T16:54:34.021Z,17.73
2022-09-27T16:57:22.962Z,18.02
2022-09-27T17:00:06.276Z,15.40
2022-09-27T17:02:42.839Z,17.77
2022-09-27T17:05:21.077Z,17.65
2022-09-27T17:08:10.265Z,18.50
2022-09-27T17:10:45.351Z,16.20
2022-09-27T17:13:28.213Z,18.13
2022-09-27T17:16:07.918Z,21.27
2022-09-27T17:18:48.338Z,31.25
2022-09-27T17:21:27.735Z,28.67
2022-09-27T17:24:21.511Z,28.15
2022-09-27T17:27:00.259Z,21.40
2022-09-27T17:29:35.243Z,18.10
2022-09-27T17:32:09.099Z,18.75
2022-09-27T17:34:44.359Z,16.88
2022-09-27T17:37:17.151Z,17.65
2022-09-27T17:40:04.688Z,16.87
2022-09-27T17:42:45.015Z,15.07
2022-09-27T17:45:27.412Z,15.25
2022-09-27T17:48:20.790Z,19.33
2022-09-27T17:50:55.304Z,15.27
2022-09-27T17:53:35.485Z,14.80
2022-09-27T17:56:22.832Z,15.68
2022-09-27T17:59:10.662Z,17.70
2022-09-27T18:01:43.529Z,16.05
2022-09-27T18:04:17.806Z,17.08
2022-09-27T18:06:59.491Z,14.70
2022-09-27T18:09:52.215Z,15.38
2022-09-27T18:12:33.136Z,13.38
2022-09-27T18:15:06.251Z,14.82
2022-09-27T18:17:55.761Z,15.45
2022-09-27T18:20:37.023Z,12.98
2022-09-27T18:23:17.173Z,15.18
2022-09-27T18:26:07.653Z,14.63
2022-09-27T18:28:53.911Z,15.98
2022-09-27T18:31:33.141Z,16.27
2022-09-27T18:34:12.955Z,17.10
2022-09-27T18:36:48.496Z,18.90
2022-09-27T18:39:44.568Z,22.35
2022-09-27T18:42:26.272Z,19.10
2022-09-27T18:45:00.084Z,18.10
2022-09-27T18:47:41.379Z,18.80
2022-09-27T18:50:19.399Z,17.63
2022-09-27T18:53:07.665Z,15.43
2022-09-27T18:55:46.119Z,14.32
2022-09-27T18:58:21.630Z,17.13
2022-09-27T19:01:15.767Z,14.25
2022-09-27T19:06:34.934Z,15.60
2022-09-27T19:09:25.791Z,13.88
2022-09-27T19:12:02.139Z,14.45
2022-09-27T19:14:41.421Z,15.02
2022-09-27T19:17:16.595Z,14.63
2022-09-27T19:19:55.185Z,13.35
2022-09-27T19:22:38.372Z,12.95
2022-09-27T19:25:13.866Z,9.03
2022-09-27T19:27:51.968Z,13.63
2022-09-27T19:33:15.657Z,12.90
2022-09-27T19:35:49.703Z,13.82
2022-09-27T19:38:21.746Z,13.63
2022-09-27T19:41:07.023Z,16.08
2022-09-27T19:43:47.098Z,14.02
2022-09-27T19:46:25.997Z,13.27
2022-09-27T19:49:09.824Z,12.63
2022-09-27T19:52:01.103Z,13.57
2022-09-27T19:54:42.655Z,13.23
2022-09-27T19:57:18.641Z,13.23
2022-09-27T19:59:56.659Z,14.32
2022-09-27T20:02:33.680Z,16.45
2022-09-27T20:05:14.162Z,15.27
2022-09-27T20:07:55.872Z,14.68
2022-09-27T20:10:36.886Z,15.13
2022-09-27T20:13:30.187Z,15.25
2022-09-27T20:16:12.936Z,13.70
2022-09-27T20:18:54.772Z,14.32
2022-09-27T20:21:36.841Z,16.33
2022-09-27T20:24:24.097Z,17.13
2022-09-27T20:27:03.084Z,15.65
2022-09-27T20:29:35.584Z,15.70
2022-09-27T20:32:27.399Z,14.77
2022-09-27T20:35:21.237Z,16.30
2022-09-27T20:38:01.738Z,17.35
2022-09-27T20:40:38.133Z,15.40
2022-09-27T20:43:18.936Z,16.30
2022-09-27T20:46:02.434Z,15.27
2022-09-27T20:48:49.647Z,16.27
2022-09-27T20:51:30.171Z,15.85
2022-09-27T20:54:04.312Z,14.13
2022-09-27T20:56:43.874Z,13.60
2022-09-27T20:59:23.214Z,14.40
2022-09-27T21:01:58.937Z,14.52
2022-09-27T21:04:34.397Z,14.45
2022-09-27T21:07:09.474Z,15.20
2022-09-27T21:09:45.728Z,15.63
2022-09-27T21:12:27.373Z,15.15
2022-09-27T21:15:06.455Z,15.60
2022-09-27T21:17:52.792Z,16.92
2022-09-27T21:20:31.324Z,18.55
2022-09-27T21:23:18.173Z,19.38
2022-09-27T21:26:08.717Z,18.58
2022-09-27T21:28:48.043Z,18.17
2022-09-27T21:31:34.291Z,18.20
2022-09-27T21:34:07.890Z,18.92
2022-09-27T21:36:50.892Z,18.20
2022-09-27T21:39:30.029Z,15.07
2022-09-27T21:42:07.294Z,16.77
2022-09-27T21:44:45.455Z,15.05
2022-09-27T21:47:28.529Z,15.55
2022-09-27T21:49:57.206Z,13.67
2022-09-27T21:52:40.396Z,13.43
2022-09-27T21:55:16.255Z,12.10
2022-09-27T21:58:01.742Z,13.82
2022-09-27T22:00:28.794Z,12.73
2022-09-27T22:03:30.976Z,12.93
2022-09-27T22:06:12.467Z,12.50
2022-09-27T22:08:49.221Z,12.68
2022-09-27T22:11:33.038Z,11.75
2022-09-27T22:14:14.694Z,11.68
2022-09-27T22:16:50.603Z,10.25
2022-09-27T22:19:28.961Z,10.65
2022-09-27T22:22:09.730Z,10.38
2022-09-27T22:24:44.982Z,10.02
2022-09-27T22:27:25.996Z,9.75
2022-09-27T22:30:03.617Z,9.15
2022-09-27T22:32:38.995Z,10.75
2022-09-27T22:35:16.079Z,9.50
2022-09-27T22:37:44.243Z,9.32
2022-09-27T22:40:27.574Z,7.20
2022-09-27T22:43:06.733Z,7.55
2022-09-27T22:45:34.055Z,6.55
2022-09-27T22:48:07.570Z,8.52
2022-09-27T22:50:54.338Z,7.13
2022-09-27T22:53:35.275Z,7.53
2022-09-27T22:56:16.666Z,6.82
2022-09-27T22:59:01.930Z,6.28
2022-09-27T23:01:37.404Z,6.47
2022-09-27T23:04:15.547Z,6.13
2022-09-27T23:06:49.691Z,6.03
2022-09-27T23:09:33.039Z,8.48
2022-09-27T23:12:13.812Z,7.25
2022-09-27T23:14:51.994Z,5.80
2022-09-27T23:17:27.598Z,7.15
2022-09-27T23:20:06.344Z,6.75
2022-09-27T23:22:41.686Z,6.82
2022-09-27T23:25:14.297Z,6.60
2022-09-27T23:27:56.188Z,6.47
2022-09-27T23:30:31.936Z,6.25
2022-09-27T23:33:16.238Z,6.47
2022-09-27T23:35:53.642Z,7.72
2022-09-27T23:38:45.106Z,8.27
2022-09-27T23:41:20.740Z,8.57
2022-09-27T23:43:54.375Z,8.43
2022-09-27T23:46:29.730Z,9.23
2022-09-27T23:49:06.136Z,8.77
2022-09-27T23:51:47.181Z,9.50
2022-09-27T23:54:19.883Z,8.68
2022-09-27T23:56:55.326Z,9.38
2022-09-27T23:59:39.442Z,9.82
